sensor_id;sensor_type;location;lat;lon;timestamp;P1;durP1;ratioP1;P2;durP2;ratioP2
46713;SDS011;32445;51.376;10.874;2023-03-09T00:00:29;17.30;;;15.52;;
46713;SDS011;32445;51.376;10.874;2023-03-09T00:03:29;18.23;;;16.35;;
46713;SDS011;32445;51.376;10.874;2023-03-09T00:06:30;18.27;;;16.30;;
46713;SDS011;32445;51.376;10.874;2023-03-09T00:09:30;19.33;;;17.25;;
46713;SDS011;32445;51.376;10.874;2023-03-09T00:12:31;20.60;;;17.13;;
46713;SDS011;32445;51.376;10.874;2023-03-09T00:15:31;18.55;;;15.30;;
46713;SDS011;32445;51.376;10.874;2023-03-09T00:18:31;15.77;;;14.18;;
46713;SDS011;32445;51.376;10.874;2023-03-09T00:21:32;16.88;;;15.10;;
46713;SDS011;32445;51.376;10.874;2023-03-09T00:24:40;18.73;;;15.98;;
46713;SDS011;32445;51.376;10.874;2023-03-09T00:27:47;17.17;;;15.35;;
46713;SDS011;32445;51.376;10.874;2023-03-09T00:30:48;16.25;;;14.38;;
46713;SDS011;32445;51.376;10.874;2023-03-09T00:33:49;19.60;;;15.90;;
46713;SDS011;32445;51.376;10.874;2023-03-09T00:36:49;17.88;;;15.35;;
46713;SDS011;32445;51.376;10.874;2023-03-09T00:39:50;17.98;;;14.73;;
46713;SDS011;32445;51.376;10.874;2023-03-09T00:42:50;16.13;;;14.23;;
46713;SDS011;32445;51.376;10.874;2023-03-09T00:45:50;19.20;;;15.32;;
46713;SDS011;32445;51.376;10.874;2023-03-09T00:48:51;15.52;;;14.05;;
46713;SDS011;32445;51.376;10.874;2023-03-09T00:51:51;16.02;;;14.05;;
46713;SDS011;32445;51.376;10.874;2023-03-09T00:54:51;14.77;;;13.38;;
46713;SDS011;32445;51.376;10.874;2023-03-09T00:57:53;14.45;;;12.90;;
46713;SDS011;32445;51.376;10.874;2023-03-09T01:00:53;15.32;;;13.73;;
46713;SDS011;32445;51.376;10.874;2023-03-09T01:03:53;13.68;;;12.35;;
46713;SDS011;32445;51.376;10.874;2023-03-09T01:06:54;11.63;;;10.68;;
46713;SDS011;32445;51.376;10.874;2023-03-09T01:09:55;12.93;;;11.77;;
46713;SDS011;32445;51.376;10.874;2023-03-09T01:12:56;12.57;;;11.48;;
46713;SDS011;32445;51.376;10.874;2023-03-09T01:15:56;10.90;;;9.90;;
46713;SDS011;32445;51.376;10.874;2023-03-09T01:18:56;12.55;;;11.38;;
46713;SDS011;32445;51.376;10.874;2023-03-09T01:21:57;12.20;;;11.00;;
46713;SDS011;32445;51.376;10.874;2023-03-09T01:24:57;12.77;;;11.68;;
46713;SDS011;32445;51.376;10.874;2023-03-09T01:27:58;13.18;;;11.85;;
46713;SDS011;32445;51.376;10.874;2023-03-09T01:30:58;12.00;;;10.77;;
46713;SDS011;32445;51.376;10.874;2023-03-09T01:33:58;11.30;;;10.20;;
46713;SDS011;32445;51.376;10.874;2023-03-09T01:36:59;11.30;;;10.25;;
46713;SDS011;32445;51.376;10.874;2023-03-09T01:39:59;11.05;;;10.05;;
46713;SDS011;32445;51.376;10.874;2023-03-09T01:43:00;10.90;;;9.75;;
46713;SDS011;32445;51.376;10.874;2023-03-09T01:52:26;10.18;;;9.23;;
46713;SDS011;32445;51.376;10.874;2023-03-09T01:55:31;10.85;;;9.85;;
46713;SDS011;32445;51.376;10.874;2023-03-09T01:58:39;10.57;;;9.63;;
46713;SDS011;32445;51.376;10.874;2023-03-09T02:01:40;9.45;;;8.65;;
46713;SDS011;32445;51.376;10.874;2023-03-09T02:04:44;9.90;;;9.00;;
46713;SDS011;32445;51.376;10.874;2023-03-09T02:07:48;9.32;;;8.52;;
46713;SDS011;32445;51.376;10.874;2023-03-09T02:10:57;9.57;;;8.70;;
46713;SDS011;32445;51.376;10.874;2023-03-09T02:14:03;9.15;;;8.35;;
46713;SDS011;32445;51.376;10.874;2023-03-09T02:17:04;9.13;;;8.32;;
46713;SDS011;32445;51.376;10.874;2023-03-09T02:23:13;7.55;;;6.95;;
46713;SDS011;32445;51.376;10.874;2023-03-09T02:29:40;8.60;;;7.80;;
46713;SDS011;32445;51.376;10.874;2023-03-09T02:32:40;7.68;;;7.07;;
46713;SDS011;32445;51.376;10.874;2023-03-09T02:35:41;8.40;;;7.70;;
46713;SDS011;32445;51.376;10.874;2023-03-09T02:38:41;7.80;;;7.05;;
46713;SDS011;32445;51.376;10.874;2023-03-09T02:41:41;8.25;;;7.55;;
46713;SDS011;32445;51.376;10.874;2023-03-09T02:44:42;7.70;;;7.10;;
46713;SDS011;32445;51.376;10.874;2023-03-09T02:47:42;7.82;;;7.13;;
46713;SDS011;32445;51.376;10.874;2023-03-09T02:50:46;8.30;;;7.50;;
46713;SDS011;32445;51.376;10.874;2023-03-09T02:53:46;7.10;;;6.60;;
46713;SDS011;32445;51.376;10.874;2023-03-09T02:56:47;6.95;;;6.43;;
46713;SDS011;32445;51.376;10.874;2023-03-09T02:59:47;7.35;;;6.75;;
46713;SDS011;32445;51.376;10.874;2023-03-09T03:02:47;6.65;;;6.13;;
46713;SDS011;32445;51.376;10.874;2023-03-09T03:05:48;6.90;;;6.30;;
46713;SDS011;32445;51.376;10.874;2023-03-09T03:08:48;7.07;;;6.55;;
46713;SDS011;32445;51.376;10.874;2023-03-09T03:11:49;7.07;;;6.47;;
46713;SDS011;32445;51.376;10.874;2023-03-09T03:14:49;6.57;;;6.13;;
46713;SDS011;32445;51.376;10.874;2023-03-09T03:17:49;6.88;;;6.38;;
46713;SDS011;32445;51.376;10.874;2023-03-09T03:20:51;6.38;;;5.88;;
46713;SDS011;32445;51.376;10.874;2023-03-09T03:23:51;5.95;;;5.55;;
46713;SDS011;32445;51.376;10.874;2023-03-09T03:26:52;5.13;;;4.72;;
46713;SDS011;32445;51.376;10.874;2023-03-09T03:29:52;6.68;;;6.18;;
46713;SDS011;32445;51.376;10.874;2023-03-09T03:32:53;6.25;;;5.85;;
46713;SDS011;32445;51.376;10.874;2023-03-09T03:35:54;7.43;;;6.82;;
46713;SDS011;32445;51.376;10.874;2023-03-09T03:38:54;7.10;;;6.60;;
46713;SDS011;32445;51.376;10.874;2023-03-09T03:41:55;7.47;;;6.97;;
46713;SDS011;32445;51.376;10.874;2023-03-09T03:44:55;6.95;;;6.45;;
46713;SDS011;32445;51.376;10.874;2023-03-09T03:47:55;6.28;;;5.78;;
46713;SDS011;32445;51.376;10.874;2023-03-09T03:50:55;6.55;;;6.05;;
46713;SDS011;32445;51.376;10.874;2023-03-09T03:53:56;6.70;;;6.20;;
46713;SDS011;32445;51.376;10.874;2023-03-09T03:56:56;5.47;;;5.07;;
46713;SDS011;32445;51.376;10.874;2023-03-09T03:59:57;6.57;;;6.07;;
46713;SDS011;32445;51.376;10.874;2023-03-09T04:02:57;5.68;;;5.28;;
46713;SDS011;32445;51.376;10.874;2023-03-09T04:05:58;7.33;;;6.83;;
46713;SDS011;32445;51.376;10.874;2023-03-09T04:08:59;6.65;;;6.05;;
46713;SDS011;32445;51.376;10.874;2023-03-09T04:11:59;6.50;;;5.90;;
46713;SDS011;32445;51.376;10.874;2023-03-09T04:15:00;6.03;;;5.63;;
46713;SDS011;32445;51.376;10.874;2023-03-09T04:18:00;6.43;;;5.93;;
46713;SDS011;32445;51.376;10.874;2023-03-09T04:21:01;6.05;;;5.65;;
46713;SDS011;32445;51.376;10.874;2023-03-09T04:24:01;8.50;;;7.88;;
46713;SDS011;32445;51.376;10.874;2023-03-09T04:27:01;9.90;;;9.10;;
46713;SDS011;32445;51.376;10.874;2023-03-09T04:30:02;9.55;;;8.52;;
46713;SDS011;32445;51.376;10.874;2023-03-09T04:33:02;9.10;;;7.40;;
46713;SDS011;32445;51.376;10.874;2023-03-09T04:36:03;8.32;;;7.63;;
46713;SDS011;32445;51.376;10.874;2023-03-09T04:39:03;8.35;;;7.60;;
46713;SDS011;32445;51.376;10.874;2023-03-09T04:42:07;9.15;;;8.35;;
46713;SDS011;32445;51.376;10.874;2023-03-09T04:45:08;7.07;;;6.47;;
46713;SDS011;32445;51.376;10.874;2023-03-09T04:48:09;7.22;;;4.85;;
46713;SDS011;32445;51.376;10.874;2023-03-09T04:51:09;2.90;;;2.70;;
46713;SDS011;32445;51.376;10.874;2023-03-09T04:54:10;3.97;;;3.65;;
46713;SDS011;32445;51.376;10.874;2023-03-09T04:57:10;3.92;;;3.13;;
46713;SDS011;32445;51.376;10.874;2023-03-09T05:00:11;3.17;;;2.97;;
46713;SDS011;32445;51.376;10.874;2023-03-09T05:03:15;3.22;;;3.00;;
46713;SDS011;32445;51.376;10.874;2023-03-09T05:06:15;5.85;;;3.17;;
46713;SDS011;32445;51.376;10.874;2023-03-09T05:09:16;3.10;;;2.90;;
46713;SDS011;32445;51.376;10.874;2023-03-09T05:12:17;3.70;;;3.40;;
46713;SDS011;32445;51.376;10.874;2023-03-09T05:15:17;4.20;;;3.92;;
46713;SDS011;32445;51.376;10.874;2023-03-09T05:18:18;3.70;;;3.50;;
46713;SDS011;32445;51.376;10.874;2023-03-09T05:21:18;3.45;;;3.25;;
46713;SDS011;32445;51.376;10.874;2023-03-09T05:24:18;3.53;;;3.33;;
46713;SDS011;32445;51.376;10.874;2023-03-09T05:27:19;3.95;;;3.70;;
46713;SDS011;32445;51.376;10.874;2023-03-09T05:30:19;3.83;;;3.53;;
46713;SDS011;32445;51.376;10.874;2023-03-09T05:33:20;3.83;;;3.53;;
46713;SDS011;32445;51.376;10.874;2023-03-09T05:36:21;3.70;;;3.50;;
46713;SDS011;32445;51.376;10.874;2023-03-09T05:39:23;4.68;;;4.28;;
46713;SDS011;32445;51.376;10.874;2023-03-09T05:42:23;3.97;;;3.67;;
46713;SDS011;32445;51.376;10.874;2023-03-09T05:45:24;3.80;;;3.60;;
46713;SDS011;32445;51.376;10.874;2023-03-09T05:48:24;3.45;;;3.25;;
46713;SDS011;32445;51.376;10.874;2023-03-09T05:51:24;4.95;;;4.38;;
46713;SDS011;32445;51.376;10.874;2023-03-09T05:54:25;6.35;;;5.75;;
46713;SDS011;32445;51.376;10.874;2023-03-09T05:57:25;6.07;;;5.57;;
46713;SDS011;32445;51.376;10.874;2023-03-09T06:00:25;5.85;;;5.35;;
46713;SDS011;32445;51.376;10.874;2023-03-09T06:03:26;5.43;;;5.03;;
46713;SDS011;32445;51.376;10.874;2023-03-09T06:06:26;12.05;;;7.28;;
46713;SDS011;32445;51.376;10.874;2023-03-09T06:09:27;5.88;;;5.28;;
46713;SDS011;32445;51.376;10.874;2023-03-09T06:12:27;6.95;;;6.30;;
46713;SDS011;32445;51.376;10.874;2023-03-09T06:15:27;6.07;;;5.63;;
46713;SDS011;32445;51.376;10.874;2023-03-09T06:18:28;5.35;;;4.85;;
46713;SDS011;32445;51.376;10.874;2023-03-09T06:21:28;6.72;;;6.25;;
46713;SDS011;32445;51.376;10.874;2023-03-09T06:24:28;4.72;;;4.32;;
46713;SDS011;32445;51.376;10.874;2023-03-09T06:27:29;5.13;;;4.80;;
46713;SDS011;32445;51.376;10.874;2023-03-09T06:30:29;4.75;;;4.35;;
46713;SDS011;32445;51.376;10.874;2023-03-09T06:33:30;5.38;;;4.97;;
46713;SDS011;32445;51.376;10.874;2023-03-09T06:36:30;4.80;;;4.50;;
46713;SDS011;32445;51.376;10.874;2023-03-09T06:39:30;5.68;;;5.15;;
46713;SDS011;32445;51.376;10.874;2023-03-09T06:42:31;5.10;;;4.70;;
46713;SDS011;32445;51.376;10.874;2023-03-09T06:45:32;5.35;;;4.85;;
46713;SDS011;32445;51.376;10.874;2023-03-09T06:48:33;4.50;;;4.20;;
46713;SDS011;32445;51.376;10.874;2023-03-09T06:51:33;3.80;;;3.55;;
46713;SDS011;32445;51.376;10.874;2023-03-09T06:54:33;4.78;;;4.47;;
46713;SDS011;32445;51.376;10.874;2023-03-09T06:57:35;4.00;;;3.80;;
46713;SDS011;32445;51.376;10.874;2023-03-09T07:00:36;4.20;;;4.00;;
46713;SDS011;32445;51.376;10.874;2023-03-09T07:03:40;4.43;;;4.13;;
46713;SDS011;32445;51.376;10.874;2023-03-09T07:06:41;5.82;;;5.32;;
46713;SDS011;32445;51.376;10.874;2023-03-09T07:09:41;5.20;;;4.90;;
46713;SDS011;32445;51.376;10.874;2023-03-09T07:12:42;4.95;;;4.55;;
46713;SDS011;32445;51.376;10.874;2023-03-09T07:15:42;4.97;;;4.60;;
46713;SDS011;32445;51.376;10.874;2023-03-09T07:18:43;5.07;;;4.75;;
46713;SDS011;32445;51.376;10.874;2023-03-09T07:21:43;5.78;;;5.38;;
46713;SDS011;32445;51.376;10.874;2023-03-09T07:24:43;6.93;;;6.43;;
46713;SDS011;32445;51.376;10.874;2023-03-09T07:27:44;6.30;;;5.82;;
46713;SDS011;32445;51.376;10.874;2023-03-09T07:30:44;5.95;;;5.43;;
46713;SDS011;32445;51.376;10.874;2023-03-09T07:33:47;7.32;;;6.82;;
46713;SDS011;32445;51.376;10.874;2023-03-09T07:36:48;8.07;;;7.35;;
46713;SDS011;32445;51.376;10.874;2023-03-09T07:39:48;8.68;;;7.90;;
46713;SDS011;32445;51.376;10.874;2023-03-09T07:42:49;6.25;;;5.75;;
46713;SDS011;32445;51.376;10.874;2023-03-09T07:45:52;6.68;;;6.18;;
46713;SDS011;32445;51.376;10.874;2023-03-09T07:48:53;6.68;;;6.18;;
46713;SDS011;32445;51.376;10.874;2023-03-09T07:51:53;6.38;;;5.97;;
46713;SDS011;32445;51.376;10.874;2023-03-09T07:54:59;7.50;;;6.22;;
46713;SDS011;32445;51.376;10.874;2023-03-09T07:58:01;5.97;;;5.57;;
46713;SDS011;32445;51.376;10.874;2023-03-09T08:01:03;5.97;;;5.47;;
46713;SDS011;32445;51.376;10.874;2023-03-09T08:04:03;5.82;;;5.32;;
46713;SDS011;32445;51.376;10.874;2023-03-09T08:07:04;5.47;;;4.97;;
46713;SDS011;32445;51.376;10.874;2023-03-09T08:10:04;6.57;;;6.07;;
46713;SDS011;32445;51.376;10.874;2023-03-09T08:13:06;6.82;;;6.25;;
46713;SDS011;32445;51.376;10.874;2023-03-09T08:16:07;6.22;;;5.82;;
46713;SDS011;32445;51.376;10.874;2023-03-09T08:19:08;5.95;;;5.55;;
46713;SDS011;32445;51.376;10.874;2023-03-09T08:22:09;6.15;;;5.55;;
46713;SDS011;32445;51.376;10.874;2023-03-09T08:25:09;7.18;;;6.68;;
46713;SDS011;32445;51.376;10.874;2023-03-09T08:28:13;6.32;;;5.72;;
46713;SDS011;32445;51.376;10.874;2023-03-09T08:31:14;6.78;;;6.25;;
46713;SDS011;32445;51.376;10.874;2023-03-09T08:34:19;6.40;;;4.80;;
46713;SDS011;32445;51.376;10.874;2023-03-09T08:37:20;7.43;;;4.65;;
46713;SDS011;32445;51.376;10.874;2023-03-09T08:40:20;4.70;;;4.30;;
46713;SDS011;32445;51.376;10.874;2023-03-09T08:43:20;4.72;;;4.43;;
46713;SDS011;32445;51.376;10.874;2023-03-09T08:46:21;5.40;;;5.05;;
46713;SDS011;32445;51.376;10.874;2023-03-09T08:49:21;6.05;;;5.47;;
46713;SDS011;32445;51.376;10.874;2023-03-09T08:52:22;5.57;;;5.07;;
46713;SDS011;32445;51.376;10.874;2023-03-09T08:55:22;4.10;;;3.80;;
46713;SDS011;32445;51.376;10.874;2023-03-09T08:58:23;3.90;;;3.67;;
46713;SDS011;32445;51.376;10.874;2023-03-09T09:01:23;3.97;;;3.78;;
46713;SDS011;32445;51.376;10.874;2023-03-09T09:04:23;4.60;;;4.30;;
46713;SDS011;32445;51.376;10.874;2023-03-09T09:07:24;4.63;;;4.32;;
46713;SDS011;32445;51.376;10.874;2023-03-09T09:10:25;5.43;;;4.93;;
46713;SDS011;32445;51.376;10.874;2023-03-09T09:13:25;5.28;;;4.78;;
46713;SDS011;32445;51.376;10.874;2023-03-09T09:16:25;3.63;;;3.42;;
46713;SDS011;32445;51.376;10.874;2023-03-09T09:19:29;4.22;;;3.92;;
46713;SDS011;32445;51.376;10.874;2023-03-09T09:22:29;4.85;;;4.45;;
46713;SDS011;32445;51.376;10.874;2023-03-09T09:25:30;5.95;;;5.22;;
46713;SDS011;32445;51.376;10.874;2023-03-09T09:28:30;6.72;;;4.43;;
46713;SDS011;32445;51.376;10.874;2023-03-09T09:31:31;6.00;;;5.60;;
46713;SDS011;32445;51.376;10.874;2023-03-09T09:34:32;5.85;;;5.45;;
46713;SDS011;32445;51.376;10.874;2023-03-09T09:37:33;5.70;;;5.30;;
46713;SDS011;32445;51.376;10.874;2023-03-09T09:40:33;7.00;;;6.50;;
46713;SDS011;32445;51.376;10.874;2023-03-09T09:43:38;7.22;;;6.72;;
46713;SDS011;32445;51.376;10.874;2023-03-09T09:46:40;8.00;;;7.40;;
46713;SDS011;32445;51.376;10.874;2023-03-09T09:49:44;7.68;;;6.95;;
46713;SDS011;32445;51.376;10.874;2023-03-09T09:52:59;8.30;;;7.70;;
46713;SDS011;32445;51.376;10.874;2023-03-09T09:56:12;8.70;;;7.82;;
46713;SDS011;32445;51.376;10.874;2023-03-09T09:59:40;8.27;;;7.68;;
46713;SDS011;32445;51.376;10.874;2023-03-09T10:02:50;8.93;;;8.23;;
46713;SDS011;32445;51.376;10.874;2023-03-09T10:12:23;9.48;;;8.77;;
46713;SDS011;32445;51.376;10.874;2023-03-09T10:15:26;9.63;;;8.93;;
46713;SDS011;32445;51.376;10.874;2023-03-09T10:18:32;9.25;;;8.30;;
46713;SDS011;32445;51.376;10.874;2023-03-09T10:21:35;8.07;;;7.47;;
46713;SDS011;32445;51.376;10.874;2023-03-09T10:27:54;8.68;;;8.02;;
46713;SDS011;32445;51.376;10.874;2023-03-09T10:31:05;8.80;;;8.10;;
46713;SDS011;32445;51.376;10.874;2023-03-09T10:34:21;8.10;;;7.50;;
46713;SDS011;32445;51.376;10.874;2023-03-09T10:37:32;8.65;;;7.95;;
46713;SDS011;32445;51.376;10.874;2023-03-09T10:40:37;9.25;;;8.38;;
46713;SDS011;32445;51.376;10.874;2023-03-09T10:43:42;7.75;;;7.15;;
46713;SDS011;32445;51.376;10.874;2023-03-09T10:46:53;8.33;;;7.57;;
46713;SDS011;32445;51.376;10.874;2023-03-09T10:50:11;7.95;;;7.35;;
46713;SDS011;32445;51.376;10.874;2023-03-09T10:53:33;8.00;;;7.40;;
46713;SDS011;32445;51.376;10.874;2023-03-09T10:56:41;8.80;;;8.15;;
46713;SDS011;32445;51.376;10.874;2023-03-09T10:59:43;7.75;;;7.15;;
46713;SDS011;32445;51.376;10.874;2023-03-09T11:02:56;8.43;;;7.77;;
46713;SDS011;32445;51.376;10.874;2023-03-09T11:06:41;8.75;;;8.07;;
46713;SDS011;32445;51.376;10.874;2023-03-09T11:12:37;9.00;;;8.27;;
46713;SDS011;32445;51.376;10.874;2023-03-09T11:15:39;8.32;;;7.72;;
46713;SDS011;32445;51.376;10.874;2023-03-09T11:18:40;8.43;;;7.82;;
46713;SDS011;32445;51.376;10.874;2023-03-09T11:21:52;7.60;;;7.00;;
46713;SDS011;32445;51.376;10.874;2023-03-09T11:24:59;8.07;;;7.47;;
46713;SDS011;32445;51.376;10.874;2023-03-09T11:28:21;7.95;;;7.25;;
46713;SDS011;32445;51.376;10.874;2023-03-09T11:31:36;7.85;;;7.22;;
46713;SDS011;32445;51.376;10.874;2023-03-09T11:34:42;7.78;;;7.10;;
46713;SDS011;32445;51.376;10.874;2023-03-09T11:37:46;7.82;;;7.22;;
46713;SDS011;32445;51.376;10.874;2023-03-09T11:40:56;7.90;;;7.30;;
46713;SDS011;32445;51.376;10.874;2023-03-09T11:47:57;7.47;;;6.97;;
46713;SDS011;32445;51.376;10.874;2023-03-09T11:51:12;6.43;;;5.93;;
46713;SDS011;32445;51.376;10.874;2023-03-09T11:57:24;7.55;;;6.95;;
46713;SDS011;32445;51.376;10.874;2023-03-09T12:00:26;7.57;;;6.82;;
46713;SDS011;32445;51.376;10.874;2023-03-09T12:03:29;6.40;;;5.90;;
46713;SDS011;32445;51.376;10.874;2023-03-09T12:06:56;7.07;;;6.53;;
46713;SDS011;32445;51.376;10.874;2023-03-09T12:10:18;7.57;;;6.97;;
46713;SDS011;32445;51.376;10.874;2023-03-09T12:16:51;7.13;;;6.63;;
46713;SDS011;32445;51.376;10.874;2023-03-09T12:19:55;8.02;;;7.43;;
46713;SDS011;32445;51.376;10.874;2023-03-09T12:22:56;7.85;;;7.25;;
46713;SDS011;32445;51.376;10.874;2023-03-09T12:25:56;8.25;;;7.65;;
46713;SDS011;32445;51.376;10.874;2023-03-09T12:29:05;8.38;;;7.68;;
46713;SDS011;32445;51.376;10.874;2023-03-09T12:32:18;9.57;;;8.77;;
46713;SDS011;32445;51.376;10.874;2023-03-09T12:38:22;10.43;;;8.98;;
46713;SDS011;32445;51.376;10.874;2023-03-09T12:41:26;10.30;;;9.57;;
46713;SDS011;32445;51.376;10.874;2023-03-09T12:47:44;9.30;;;8.60;;
46713;SDS011;32445;51.376;10.874;2023-03-09T12:54:20;8.32;;;7.53;;
46713;SDS011;32445;51.376;10.874;2023-03-09T12:57:24;9.10;;;8.30;;
46713;SDS011;32445;51.376;10.874;2023-03-09T13:00:26;13.65;;;12.43;;
46713;SDS011;32445;51.376;10.874;2023-03-09T13:03:41;15.07;;;13.35;;
46713;SDS011;32445;51.376;10.874;2023-03-09T13:06:44;19.75;;;16.65;;
46713;SDS011;32445;51.376;10.874;2023-03-09T13:09:50;19.45;;;17.60;;
46713;SDS011;32445;51.376;10.874;2023-03-09T13:19:38;24.37;;;20.50;;
46713;SDS011;32445;51.376;10.874;2023-03-09T13:22:40;18.70;;;16.85;;
46713;SDS011;32445;51.376;10.874;2023-03-09T13:25:43;17.52;;;15.95;;
46713;SDS011;32445;51.376;10.874;2023-03-09T13:28:47;17.40;;;15.73;;
46713;SDS011;32445;51.376;10.874;2023-03-09T13:31:50;17.75;;;15.98;;
46713;SDS011;32445;51.376;10.874;2023-03-09T13:34:51;18.03;;;16.23;;
46713;SDS011;32445;51.376;10.874;2023-03-09T13:37:53;17.23;;;15.60;;
46713;SDS011;32445;51.376;10.874;2023-03-09T13:40:56;15.40;;;14.02;;
46713;SDS011;32445;51.376;10.874;2023-03-09T13:43:59;15.23;;;13.82;;
46713;SDS011;32445;51.376;10.874;2023-03-09T13:47:00;14.38;;;13.07;;
46713;SDS011;32445;51.376;10.874;2023-03-09T13:50:03;15.38;;;14.00;;
46713;SDS011;32445;51.376;10.874;2023-03-09T13:53:05;16.45;;;14.88;;
46713;SDS011;32445;51.376;10.874;2023-03-09T13:56:15;15.68;;;14.25;;
46713;SDS011;32445;51.376;10.874;2023-03-09T13:59:15;19.33;;;15.40;;
46713;SDS011;32445;51.376;10.874;2023-03-09T14:02:16;16.00;;;14.40;;
46713;SDS011;32445;51.376;10.874;2023-03-09T14:05:18;16.52;;;14.73;;
46713;SDS011;32445;51.376;10.874;2023-03-09T14:08:21;24.50;;;21.92;;
46713;SDS011;32445;51.376;10.874;2023-03-09T14:14:25;18.63;;;16.85;;
46713;SDS011;32445;51.376;10.874;2023-03-09T14:17:27;18.88;;;16.02;;
46713;SDS011;32445;51.376;10.874;2023-03-09T14:23:40;18.98;;;17.08;;
46713;SDS011;32445;51.376;10.874;2023-03-09T14:26:43;17.13;;;15.27;;
46713;SDS011;32445;51.376;10.874;2023-03-09T14:29:44;15.60;;;14.13;;
46713;SDS011;32445;51.376;10.874;2023-03-09T14:33:01;16.35;;;14.57;;
46713;SDS011;32445;51.376;10.874;2023-03-09T14:36:04;15.45;;;12.77;;
46713;SDS011;32445;51.376;10.874;2023-03-09T14:39:19;13.50;;;12.32;;
46713;SDS011;32445;51.376;10.874;2023-03-09T14:42:26;11.88;;;10.88;;
46713;SDS011;32445;51.376;10.874;2023-03-09T14:45:31;15.30;;;13.77;;
46713;SDS011;32445;51.376;10.874;2023-03-09T14:48:31;14.02;;;12.88;;
46713;SDS011;32445;51.376;10.874;2023-03-09T14:51:32;12.05;;;11.05;;
46713;SDS011;32445;51.376;10.874;2023-03-09T14:54:36;13.23;;;12.02;;
46713;SDS011;32445;51.376;10.874;2023-03-09T14:57:36;11.15;;;10.18;;
46713;SDS011;32445;51.376;10.874;2023-03-09T15:00:37;11.63;;;10.73;;
46713;SDS011;32445;51.376;10.874;2023-03-09T15:03:39;12.90;;;11.80;;
46713;SDS011;32445;51.376;10.874;2023-03-09T15:06:39;11.52;;;10.52;;
46713;SDS011;32445;51.376;10.874;2023-03-09T15:09:40;12.73;;;11.52;;
46713;SDS011;32445;51.376;10.874;2023-03-09T15:12:44;13.18;;;12.00;;
46713;SDS011;32445;51.376;10.874;2023-03-09T15:15:46;11.77;;;10.77;;
46713;SDS011;32445;51.376;10.874;2023-03-09T15:18:46;11.48;;;10.50;;
46713;SDS011;32445;51.376;10.874;2023-03-09T15:21:47;11.35;;;10.48;;
46713;SDS011;32445;51.376;10.874;2023-03-09T15:24:48;12.13;;;10.95;;
46713;SDS011;32445;51.376;10.874;2023-03-09T15:27:48;11.70;;;10.70;;
46713;SDS011;32445;51.376;10.874;2023-03-09T15:30:49;12.82;;;11.57;;
46713;SDS011;32445;51.376;10.874;2023-03-09T15:33:49;13.40;;;12.23;;
46713;SDS011;32445;51.376;10.874;2023-03-09T15:36:50;13.18;;;11.98;;
46713;SDS011;32445;51.376;10.874;2023-03-09T15:39:50;13.52;;;12.18;;
46713;SDS011;32445;51.376;10.874;2023-03-09T15:42:51;10.90;;;9.93;;
46713;SDS011;32445;51.376;10.874;2023-03-09T15:45:51;10.93;;;10.02;;
46713;SDS011;32445;51.376;10.874;2023-03-09T15:48:52;12.50;;;11.40;;
46713;SDS011;32445;51.376;10.874;2023-03-09T15:51:53;11.48;;;10.65;;
46713;SDS011;32445;51.376;10.874;2023-03-09T15:54:53;12.48;;;11.38;;
46713;SDS011;32445;51.376;10.874;2023-03-09T15:57:54;13.73;;;12.60;;
46713;SDS011;32445;51.376;10.874;2023-03-09T16:00:58;12.77;;;11.75;;
46713;SDS011;32445;51.376;10.874;2023-03-09T16:04:06;14.35;;;12.98;;
46713;SDS011;32445;51.376;10.874;2023-03-09T16:07:07;13.52;;;12.20;;
46713;SDS011;32445;51.376;10.874;2023-03-09T16:10:07;12.10;;;11.10;;
46713;SDS011;32445;51.376;10.874;2023-03-09T16:13:08;13.10;;;12.00;;
46713;SDS011;32445;51.376;10.874;2023-03-09T16:16:09;12.73;;;11.63;;
46713;SDS011;32445;51.376;10.874;2023-03-09T16:19:10;16.05;;;14.52;;
46713;SDS011;32445;51.376;10.874;2023-03-09T16:22:10;14.65;;;13.20;;
46713;SDS011;32445;51.376;10.874;2023-03-09T16:25:11;13.10;;;11.90;;
46713;SDS011;32445;51.376;10.874;2023-03-09T16:28:11;13.85;;;12.57;;
46713;SDS011;32445;51.376;10.874;2023-03-09T16:31:15;17.13;;;15.32;;
46713;SDS011;32445;51.376;10.874;2023-03-09T16:34:19;13.68;;;12.50;;
46713;SDS011;32445;51.376;10.874;2023-03-09T16:37:21;16.60;;;14.98;;
46713;SDS011;32445;51.376;10.874;2023-03-09T16:40:21;19.40;;;17.38;;
46713;SDS011;32445;51.376;10.874;2023-03-09T16:43:21;21.77;;;19.38;;
46713;SDS011;32445;51.376;10.874;2023-03-09T16:46:23;19.67;;;17.70;;
46713;SDS011;32445;51.376;10.874;2023-03-09T16:49:24;17.92;;;16.23;;
46713;SDS011;32445;51.376;10.874;2023-03-09T16:52:25;17.10;;;15.40;;
46713;SDS011;32445;51.376;10.874;2023-03-09T16:58:28;19.88;;;16.10;;
46713;SDS011;32445;51.376;10.874;2023-03-09T17:01:29;15.57;;;14.13;;
46713;SDS011;32445;51.376;10.874;2023-03-09T17:04:29;18.05;;;16.20;;
46713;SDS011;32445;51.376;10.874;2023-03-09T17:07:30;21.08;;;18.27;;
46713;SDS011;32445;51.376;10.874;2023-03-09T17:10:30;19.08;;;17.20;;
46713;SDS011;32445;51.376;10.874;2023-03-09T17:13:30;18.02;;;16.23;;
46713;SDS011;32445;51.376;10.874;2023-03-09T17:16:34;19.02;;;17.05;;
46713;SDS011;32445;51.376;10.874;2023-03-09T17:19:36;19.10;;;17.17;;
46713;SDS011;32445;51.376;10.874;2023-03-09T17:22:36;23.95;;;20.45;;
46713;SDS011;32445;51.376;10.874;2023-03-09T17:25:37;29.02;;;22.52;;
46713;SDS011;32445;51.376;10.874;2023-03-09T17:28:37;27.10;;;20.58;;
46713;SDS011;32445;51.376;10.874;2023-03-09T17:31:38;21.10;;;18.60;;
46713;SDS011;32445;51.376;10.874;2023-03-09T17:34:39;17.65;;;16.05;;
46713;SDS011;32445;51.376;10.874;2023-03-09T17:37:39;27.00;;;21.33;;
46713;SDS011;32445;51.376;10.874;2023-03-09T17:40:44;24.98;;;19.95;;
46713;SDS011;32445;51.376;10.874;2023-03-09T17:43:47;23.52;;;20.23;;
46713;SDS011;32445;51.376;10.874;2023-03-09T17:46:47;23.25;;;19.98;;
46713;SDS011;32445;51.376;10.874;2023-03-09T17:49:48;20.40;;;18.08;;
46713;SDS011;32445;51.376;10.874;2023-03-09T17:52:48;22.25;;;19.83;;
46713;SDS011;32445;51.376;10.874;2023-03-09T17:55:48;20.17;;;18.02;;
46713;SDS011;32445;51.376;10.874;2023-03-09T17:58:49;18.63;;;16.45;;
46713;SDS011;32445;51.376;10.874;2023-03-09T18:01:50;16.98;;;15.27;;
46713;SDS011;32445;51.376;10.874;2023-03-09T18:04:50;13.75;;;12.55;;
46713;SDS011;32445;51.376;10.874;2023-03-09T18:07:51;12.85;;;11.70;;
46713;SDS011;32445;51.376;10.874;2023-03-09T18:10:51;15.70;;;14.35;;
46713;SDS011;32445;51.376;10.874;2023-03-09T18:13:52;15.77;;;14.10;;
46713;SDS011;32445;51.376;10.874;2023-03-09T18:16:53;18.13;;;14.35;;
46713;SDS011;32445;51.376;10.874;2023-03-09T18:19:54;15.50;;;14.10;;
46713;SDS011;32445;51.376;10.874;2023-03-09T18:22:54;15.48;;;14.07;;
46713;SDS011;32445;51.376;10.874;2023-03-09T18:25:54;16.45;;;14.88;;
46713;SDS011;32445;51.376;10.874;2023-03-09T18:28:55;14.48;;;13.20;;
46713;SDS011;32445;51.376;10.874;2023-03-09T18:31:57;14.88;;;13.52;;
46713;SDS011;32445;51.376;10.874;2023-03-09T18:34:57;14.98;;;13.57;;
46713;SDS011;32445;51.376;10.874;2023-03-09T18:37:58;13.60;;;12.18;;
46713;SDS011;32445;51.376;10.874;2023-03-09T18:40:58;14.20;;;12.95;;
46713;SDS011;32445;51.376;10.874;2023-03-09T18:43:58;13.65;;;12.50;;
46713;SDS011;32445;51.376;10.874;2023-03-09T18:46:59;13.10;;;12.05;;
46713;SDS011;32445;51.376;10.874;2023-03-09T18:49:59;13.43;;;12.43;;